createdAt,value
2023-02-23T00:00:36.464Z,8.57
2023-02-23T00:03:06.954Z,8.00
2023-02-23T00:05:36.730Z,8.25
2023-02-23T00:08:05.175Z,7.55
2023-02-23T00:10:32.265Z,7.90
2023-02-23T00:12:59.778Z,9.07
2023-02-23T00:15:27.864Z,8.52
2023-02-23T00:17:58.163Z,9.60
2023-02-23T00:20:28.939Z,8.93
2023-02-23T00:22:57.289Z,8.95
2023-02-23T00:25:25.137Z,8.48
2023-02-23T00:27:52.558Z,9.02
2023-02-23T00:30:24.129Z,8.63
2023-02-23T00:32:52.601Z,7.85
2023-02-23T00:35:19.751Z,8.38
2023-02-23T00:37:50.176Z,8.30
2023-02-23T00:40:18.278Z,8.57
2023-02-23T00:42:45.801Z,8.35
2023-02-23T00:45:16.329Z,9.38
2023-02-23T00:47:44.666Z,8.57
2023-02-23T00:50:14.964Z,8.85
2023-02-23T00:52:43.661Z,8.27
2023-02-23T00:55:12.616Z,8.40
2023-02-23T00:57:40.034Z,9.50
2023-02-23T01:00:20.643Z,8.00
2023-02-23T01:02:48.907Z,8.75
2023-02-23T01:05:16.751Z,8.43
2023-02-23T01:07:46.818Z,8.10
2023-02-23T01:10:23.839Z,9.68
2023-02-23T01:12:52.172Z,8.38
2023-02-23T01:15:20.493Z,9.13
2023-02-23T01:17:50.064Z,9.18
2023-02-23T01:20:19.413Z,8.73
2023-02-23T01:22:49.533Z,8.13
2023-02-23T01:25:19.799Z,8.82
2023-02-23T01:27:46.890Z,8.48
2023-02-23T01:30:15.520Z,8.45
2023-02-23T01:32:42.649Z,8.82
2023-02-23T01:35:11.155Z,8.80
2023-02-23T01:37:42.734Z,8.30
2023-02-23T01:40:15.245Z,8.57
2023-02-23T01:42:45.993Z,8.80
2023-02-23T01:45:27.387Z,8.93
2023-02-23T01:48:07.108Z,9.52
2023-02-23T01:50:42.562Z,10.13
2023-02-23T01:53:12.128Z,10.80
2023-02-23T01:55:39.752Z,9.20
2023-02-23T01:58:17.294Z,9.23
2023-02-23T02:01:01.604Z,8.80
2023-02-23T02:03:34.790Z,9.65
2023-02-23T02:06:03.540Z,9.20
2023-02-23T02:08:33.174Z,8.90
2023-02-23T02:11:00.314Z,8.95
2023-02-23T02:13:30.101Z,8.15
2023-02-23T02:16:35.260Z,8.82
2023-02-23T02:19:21.060Z,8.57
2023-02-23T02:22:10.413Z,9.43
2023-02-23T02:24:58.807Z,7.95
2023-02-23T02:27:37.790Z,9.02
2023-02-23T02:30:43.995Z,8.50
2023-02-23T02:33:37.991Z,8.32
2023-02-23T02:36:11.158Z,9.52
2023-02-23T02:38:59.744Z,8.68
2023-02-23T02:41:30.836Z,10.05
2023-02-23T02:44:08.879Z,8.13
2023-02-23T02:46:41.061Z,9.93
2023-02-23T02:51:42.686Z,8.05
2023-02-23T02:56:47.984Z,7.93
2023-02-23T02:59:36.449Z,10.20
2023-02-23T03:02:23.328Z,9.77
2023-02-23T03:05:08.774Z,9.18
2023-02-23T03:08:00.464Z,9.15
2023-02-23T03:11:01.573Z,10.03
2023-02-23T03:14:09.075Z,9.40
2023-02-23T03:17:19.148Z,8.15
2023-02-23T03:20:23.357Z,9.10
2023-02-23T03:23:19.520Z,8.75
2023-02-23T03:26:13.216Z,9.60
2023-02-23T03:29:21.630Z,9.90
2023-02-23T03:32:29.417Z,9.20
2023-02-23T03:35:37.746Z,9.48
2023-02-23T03:38:27.034Z,10.15
2023-02-23T03:41:13.471Z,9.35
2023-02-23T03:44:06.094Z,10.23
2023-02-23T03:46:52.807Z,10.10
2023-02-23T03:49:39.240Z,8.90
2023-02-23T03:52:30.666Z,9.82
2023-02-23T03:55:24.437Z,9.48
2023-02-23T03:58:12.005Z,9.82
2023-02-23T04:01:02.855Z,9.10
2023-02-23T04:03:50.857Z,8.48
2023-02-23T04:06:37.808Z,8.55
2023-02-23T04:09:25.558Z,9.10
2023-02-23T04:12:11.174Z,8.85
2023-02-23T04:14:49.198Z,10.07
2023-02-23T04:17:17.757Z,10.07
2023-02-23T04:19:52.627Z,9.55
2023-02-23T04:22:20.206Z,9.65
2023-02-23T04:24:47.364Z,9.48
2023-02-23T04:27:15.277Z,9.45
2023-02-23T04:29:42.511Z,8.65
2023-02-23T04:32:18.002Z,9.05
2023-02-23T04:34:45.744Z,9.82
2023-02-23T04:37:13.291Z,9.07
2023-02-23T04:39:40.455Z,11.13
2023-02-23T04:42:07.375Z,9.35
2023-02-23T04:44:34.480Z,9.85
2023-02-23T04:47:01.528Z,9.23
2023-02-23T04:49:28.621Z,9.45
2023-02-23T04:51:55.746Z,9.77
2023-02-23T04:54:22.718Z,9.32
2023-02-23T04:56:49.704Z,10.55
2023-02-23T04:59:16.642Z,8.85
2023-02-23T05:01:45.730Z,10.77
2023-02-23T05:04:12.892Z,10.70
2023-02-23T05:06:39.865Z,12.02
2023-02-23T05:09:07.146Z,12.68
2023-02-23T05:11:34.315Z,10.43
2023-02-23T05:14:01.449Z,10.70
2023-02-23T05:16:28.376Z,10.23
2023-02-23T05:18:55.395Z,9.40
2023-02-23T05:21:25.034Z,11.68
2023-02-23T05:23:54.440Z,11.80
2023-02-23T05:26:21.550Z,9.50
2023-02-23T05:28:48.855Z,11.02
2023-02-23T05:31:16.640Z,10.70
2023-02-23T05:33:45.929Z,10.52
2023-02-23T05:36:16.713Z,11.18
2023-02-23T05:38:45.875Z,9.30
2023-02-23T05:41:15.047Z,9.57
2023-02-23T05:43:42.450Z,9.68
2023-02-23T05:46:16.048Z,9.32
2023-02-23T05:48:43.431Z,10.63
2023-02-23T05:51:13.126Z,10.68
2023-02-23T05:53:40.277Z,10.52
2023-02-23T05:56:09.285Z,10.52
2023-02-23T05:58:36.300Z,18.55
2023-02-23T06:01:03.711Z,14.35
2023-02-23T06:03:30.938Z,13.93
2023-02-23T06:05:58.992Z,12.20
2023-02-23T06:08:26.489Z,12.00
2023-02-23T06:10:53.828Z,12.32
2023-02-23T06:13:21.517Z,11.27
2023-02-23T06:15:49.701Z,11.65
2023-02-23T06:18:17.753Z,11.32
2023-02-23T06:20:46.458Z,11.35
2023-02-23T06:23:15.580Z,12.75
2023-02-23T06:25:43.857Z,15.02
2023-02-23T06:28:11.014Z,14.77
2023-02-23T06:30:38.557Z,12.07
2023-02-23T06:33:05.799Z,14.32
2023-02-23T06:35:33.542Z,17.60
2023-02-23T06:38:01.455Z,14.93
2023-02-23T06:40:29.283Z,20.73
2023-02-23T06:42:59.742Z,19.60
2023-02-23T06:45:29.314Z,23.13
2023-02-23T06:47:57.123Z,15.18
2023-02-23T06:50:24.366Z,25.38
2023-02-23T06:52:51.724Z,19.23
2023-02-23T06:55:18.860Z,21.55
2023-02-23T06:57:49.698Z,21.75
2023-02-23T07:00:17.348Z,22.73
2023-02-23T07:02:44.951Z,21.30
2023-02-23T07:05:12.131Z,19.52
2023-02-23T07:07:39.197Z,16.58
2023-02-23T07:10:06.996Z,15.68
2023-02-23T07:12:34.300Z,17.92
2023-02-23T07:15:01.312Z,19.85
2023-02-23T07:17:28.304Z,15.60
2023-02-23T07:19:55.657Z,19.35
2023-02-23T07:22:25.085Z,18.45
2023-02-23T07:24:51.981Z,12.30
2023-02-23T07:27:19.157Z,12.82
2023-02-23T07:29:49.206Z,11.88
2023-02-23T07:32:16.380Z,12.25
2023-02-23T07:34:43.619Z,10.95
2023-02-23T07:37:10.924Z,11.63
2023-02-23T07:39:37.921Z,8.77
2023-02-23T07:42:04.928Z,11.80
2023-02-23T07:44:31.905Z,12.43
2023-02-23T07:46:59.955Z,14.52
2023-02-23T07:49:27.076Z,18.58
2023-02-23T07:51:54.041Z,11.38
2023-02-23T07:54:22.054Z,13.02
2023-02-23T07:56:51.948Z,12.55
2023-02-23T07:59:21.088Z,15.40
2023-02-23T08:01:48.250Z,17.83
2023-02-23T08:04:15.339Z,18.95
2023-02-23T08:06:44.473Z,11.90
2023-02-23T08:09:11.727Z,14.50
2023-02-23T08:11:38.742Z,11.27
2023-02-23T08:14:05.887Z,11.55
2023-02-23T08:16:35.786Z,10.43
2023-02-23T08:19:03.018Z,10.77
2023-02-23T08:21:30.417Z,11.55
2023-02-23T08:24:00.235Z,10.95
2023-02-23T08:26:27.216Z,11.48
2023-02-23T08:28:55.044Z,11.27
2023-02-23T08:31:24.419Z,11.85
2023-02-23T08:33:52.303Z,11.57
2023-02-23T08:36:20.891Z,11.70
2023-02-23T08:38:48.508Z,11.95
2023-02-23T08:41:15.585Z,11.02
2023-02-23T08:43:44.124Z,13.15
2023-02-23T08:46:11.471Z,11.07
2023-02-23T08:48:40.441Z,11.63
2023-02-23T08:51:08.426Z,12.32
2023-02-23T08:53:36.008Z,13.27
2023-02-23T08:56:06.164Z,11.20
2023-02-23T08:58:34.843Z,10.48
2023-02-23T09:01:02.106Z,12.65
2023-02-23T09:03:32.422Z,13.07
2023-02-23T09:06:09.135Z,12.15
2023-02-23T09:08:36.216Z,12.55
2023-02-23T09:11:03.152Z,13.43
2023-02-23T09:13:30.088Z,11.95
2023-02-23T09:15:57.236Z,12.05
2023-02-23T09:18:24.518Z,12.32
2023-02-23T09:20:51.824Z,13.45
2023-02-23T09:23:18.830Z,12.48
2023-02-23T09:25:46.481Z,12.60
2023-02-23T09:28:15.159Z,14.60
2023-02-23T09:30:42.842Z,13.88
2023-02-23T09:33:10.492Z,12.32
2023-02-23T09:35:37.863Z,15.63
2023-02-23T09:38:06.511Z,13.18
2023-02-23T09:40:53.447Z,14.40
2023-02-23T09:43:36.233Z,14.43
2023-02-23T09:46:21.398Z,13.60
2023-02-23T09:48:48.484Z,13.75
2023-02-23T09:51:19.303Z,13.30
2023-02-23T09:53:54.561Z,13.77
2023-02-23T09:56:25.062Z,12.43
2023-02-23T09:58:52.189Z,14.00
2023-02-23T10:01:41.560Z,15.27
2023-02-23T10:04:15.797Z,13.23
2023-02-23T10:06:45.724Z,13.50
2023-02-23T10:09:22.465Z,15.23
2023-02-23T10:12:10.384Z,15.13
2023-02-23T10:15:01.731Z,13.43
2023-02-23T10:17:28.919Z,14.95
2023-02-23T10:20:09.948Z,14.23
2023-02-23T10:22:37.664Z,14.23
2023-02-23T10:25:10.751Z,14.00
2023-02-23T10:27:42.147Z,15.07
2023-02-23T10:30:26.842Z,13.55
2023-02-23T10:33:01.758Z,15.35
2023-02-23T10:35:32.377Z,15.65
2023-02-23T10:38:01.509Z,13.77
2023-02-23T10:40:33.052Z,15.45
2023-02-23T10:43:03.257Z,15.05
2023-02-23T10:45:34.356Z,15.07
2023-02-23T10:48:05.984Z,14.80
2023-02-23T10:50:33.940Z,14.80
2023-02-23T10:53:11.468Z,15.00
2023-02-23T10:55:38.416Z,16.25
2023-02-23T10:58:18.351Z,15.35
2023-02-23T11:01:08.136Z,14.65
2023-02-23T11:04:05.378Z,15.88
2023-02-23T11:06:36.017Z,16.40
2023-02-23T11:09:17.312Z,14.20
2023-02-23T11:12:00.604Z,16.13
2023-02-23T11:14:29.465Z,16.23
2023-02-23T11:16:58.240Z,16.65
2023-02-23T11:19:37.218Z,14.93
2023-02-23T11:22:05.837Z,15.18
2023-02-23T11:24:38.081Z,15.70
2023-02-23T11:29:38.709Z,15.82
2023-02-23T11:32:28.334Z,13.27
2023-02-23T11:35:16.683Z,14.50
2023-02-23T11:37:43.688Z,15.23
2023-02-23T11:40:29.939Z,16.42
2023-02-23T11:43:09.964Z,16.42
2023-02-23T11:45:47.801Z,15.50
2023-02-23T11:48:54.152Z,16.30
2023-02-23T11:51:39.730Z,15.07
2023-02-23T11:54:10.392Z,16.08
2023-02-23T11:56:39.459Z,16.08
2023-02-23T11:59:10.423Z,16.85
2023-02-23T12:01:46.539Z,18.02
2023-02-23T12:04:37.152Z,14.73
2023-02-23T12:07:25.267Z,15.30
2023-02-23T12:10:21.644Z,14.98
2023-02-23T12:12:57.366Z,16.05
2023-02-23T12:15:44.750Z,15.27
2023-02-23T12:18:30.553Z,15.23
2023-02-23T12:21:03.299Z,16.10
2023-02-23T12:23:33.309Z,15.85
2023-02-23T12:26:23.449Z,18.15
2023-02-23T12:29:00.175Z,16.77
2023-02-23T12:32:01.452Z,17.42
2023-02-23T12:34:37.270Z,16.80
2023-02-23T12:37:24.913Z,17.35
2023-02-23T12:39:57.751Z,17.02
2023-02-23T12:42:49.964Z,16.27
2023-02-23T12:45:27.140Z,17.25
2023-02-23T12:47:56.577Z,18.15
2023-02-23T12:50:32.172Z,17.63
2023-02-23T12:53:12.541Z,17.15
2023-02-23T12:56:14.631Z,17.23
2023-02-23T12:58:50.597Z,19.42
2023-02-23T13:01:30.925Z,17.48
2023-02-23T13:04:04.150Z,18.13
2023-02-23T13:06:40.364Z,17.13
2023-02-23T13:09:33.439Z,17.55
2023-02-23T13:12:00.325Z,17.58
2023-02-23T13:14:33.062Z,19.02
2023-02-23T13:17:21.200Z,19.35
2023-02-23T13:19:53.684Z,20.17
2023-02-23T13:22:36.753Z,22.00
2023-02-23T13:25:10.760Z,23.80
2023-02-23T13:27:45.500Z,19.23
2023-02-23T13:30:13.416Z,19.50
2023-02-23T13:32:40.423Z,19.42
2023-02-23T13:35:20.489Z,20.48
2023-02-23T13:38:01.771Z,19.90
2023-02-23T13:40:58.745Z,18.60
2023-02-23T13:43:32.744Z,22.08
2023-02-23T13:46:34.233Z,21.65
2023-02-23T13:49:35.083Z,21.65
2023-02-23T13:52:29.932Z,19.63
2023-02-23T13:55:04.793Z,22.63
2023-02-23T13:57:36.245Z,21.50
2023-02-23T14:00:04.143Z,22.35
2023-02-23T14:02:37.939Z,21.88
2023-02-23T14:05:15.578Z,21.50
2023-02-23T14:07:47.223Z,21.70
2023-02-23T14:10:22.328Z,20.17
2023-02-23T14:13:27.016Z,21.88
2023-02-23T14:16:17.555Z,23.17
2023-02-23T14:18:55.189Z,22.08
2023-02-23T14:21:22.282Z,23.98
2023-02-23T14:24:15.617Z,20.98
2023-02-23T14:26:44.877Z,24.13
2023-02-23T14:29:27.960Z,23.65
2023-02-23T14:31:57.845Z,22.42
2023-02-23T14:34:47.492Z,21.83
2023-02-23T14:37:25.237Z,21.60
2023-02-23T14:39:54.881Z,20.40
2023-02-23T14:42:25.319Z,21.30
2023-02-23T14:44:54.468Z,23.77
2023-02-23T14:47:23.498Z,22.55
2023-02-23T14:49:58.612Z,22.02
2023-02-23T14:52:35.756Z,23.13
2023-02-23T14:55:11.814Z,22.60
2023-02-23T14:57:40.998Z,22.25
2023-02-23T15:00:23.685Z,21.88
2023-02-23T15:03:17.209Z,22.60
2023-02-23T15:05:46.519Z,21.42
2023-02-23T15:08:16.602Z,23.38
2023-02-23T15:10:52.091Z,21.35
2023-02-23T15:13:29.766Z,22.73
2023-02-23T15:15:58.572Z,25.10
2023-02-23T15:18:34.699Z,25.58
2023-02-23T15:21:07.342Z,21.05
2023-02-23T15:23:37.795Z,24.08
2023-02-23T15:26:31.847Z,25.50
2023-02-23T15:29:13.616Z,21.77
2023-02-23T15:31:50.451Z,21.85
2023-02-23T15:34:30.850Z,26.67
2023-02-23T15:37:01.967Z,26.50
2023-02-23T15:39:54.081Z,27.15
2023-02-23T15:42:25.888Z,25.55
2023-02-23T15:44:59.774Z,34.40
2023-02-23T15:47:33.356Z,26.00
2023-02-23T15:50:08.318Z,24.08
2023-02-23T15:52:40.369Z,25.25
2023-02-23T15:55:09.301Z,26.13
2023-02-23T15:57:47.371Z,25.35
2023-02-23T16:00:32.430Z,29.95
2023-02-23T16:03:04.418Z,24.40
2023-02-23T16:05:46.991Z,24.55
2023-02-23T16:08:24.785Z,26.10
2023-02-23T16:11:02.850Z,26.92
2023-02-23T16:13:30.426Z,25.92
2023-02-23T16:15:57.618Z,26.40
2023-02-23T16:18:41.027Z,29.10
2023-02-23T16:21:11.846Z,28.15
2023-02-23T16:23:44.688Z,27.45
2023-02-23T16:26:53.856Z,29.02
2023-02-23T16:29:31.872Z,30.13
2023-02-23T16:32:03.359Z,31.60
2023-02-23T16:34:35.706Z,29.95
2023-02-23T16:39:51.685Z,27.08
2023-02-23T16:42:24.832Z,33.80
2023-02-23T16:44:51.947Z,33.05
2023-02-23T16:47:24.891Z,32.53
2023-02-23T16:49:52.312Z,35.20
2023-02-23T16:52:25.769Z,31.15
2023-02-23T16:54:55.765Z,33.67
2023-02-23T16:57:29.082Z,29.60
2023-02-23T16:59:57.633Z,32.58
2023-02-23T17:02:24.923Z,30.75
2023-02-23T17:04:53.070Z,29.17
2023-02-23T17:07:23.043Z,28.98
2023-02-23T17:09:51.024Z,31.10
2023-02-23T17:12:20.104Z,32.47
2023-02-23T17:14:47.559Z,31.42
2023-02-23T17:17:16.277Z,28.30
2023-02-23T17:19:45.542Z,30.88
2023-02-23T17:22:14.795Z,31.58
2023-02-23T17:24:43.262Z,34.22
2023-02-23T17:27:10.421Z,34.92
2023-02-23T17:29:39.590Z,36.35
2023-02-23T17:32:06.768Z,36.08
2023-02-23T17:34:33.774Z,34.97
2023-02-23T17:37:12.417Z,35.22
2023-02-23T17:39:40.990Z,36.72
2023-02-23T17:42:08.058Z,35.95
2023-02-23T17:44:34.960Z,36.47
2023-02-23T17:47:02.194Z,34.85
2023-02-23T17:49:29.134Z,33.28
2023-02-23T17:51:56.128Z,33.10
2023-02-23T17:54:23.075Z,33.95
2023-02-23T17:56:50.022Z,34.38
2023-02-23T17:59:19.228Z,34.20
2023-02-23T18:01:48.172Z,34.75
2023-02-23T18:04:16.013Z,34.70
2023-02-23T18:06:42.984Z,35.60
2023-02-23T18:09:09.868Z,35.05
2023-02-23T18:11:36.851Z,37.38
2023-02-23T18:14:03.969Z,36.95
2023-02-23T18:16:34.645Z,36.17
2023-02-23T18:19:01.552Z,35.17
2023-02-23T18:21:28.749Z,34.50
2023-02-23T18:23:55.855Z,33.65
2023-02-23T18:26:23.984Z,33.03
2023-02-23T18:28:55.961Z,34.08
2023-02-23T18:31:25.790Z,32.75
2023-02-23T18:33:53.541Z,35.72
2023-02-23T18:36:24.115Z,35.10
2023-02-23T18:38:51.135Z,34.45
2023-02-23T18:41:18.655Z,34.25
2023-02-23T18:43:45.813Z,33.67
2023-02-23T18:46:13.940Z,33.35
2023-02-23T18:48:41.528Z,33.63
2023-02-23T18:51:14.355Z,32.45
2023-02-23T18:53:42.166Z,31.45
2023-02-23T18:56:23.305Z,35.40
2023-02-23T18:58:51.456Z,30.38
2023-02-23T19:01:21.841Z,30.67
2023-02-23T19:03:50.439Z,32.60
2023-02-23T19:06:19.499Z,32.55
2023-02-23T19:08:54.143Z,36.45
2023-02-23T19:11:29.441Z,33.20
2023-02-23T19:13:59.362Z,32.58
2023-02-23T19:16:27.953Z,31.00
2023-02-23T19:18:55.230Z,31.83
2023-02-23T19:21:25.482Z,31.10
2023-02-23T19:23:53.386Z,31.55
2023-02-23T19:26:21.569Z,31.92
2023-02-23T19:28:48.975Z,29.92
2023-02-23T19:31:20.953Z,31.25
2023-02-23T19:36:22.860Z,32.30
2023-02-23T19:38:50.060Z,33.60
2023-02-23T19:41:19.543Z,33.38
2023-02-23T19:43:47.887Z,32.22
2023-02-23T19:46:21.033Z,32.75
2023-02-23T19:48:52.009Z,33.50
2023-02-23T19:51:19.587Z,33.50
2023-02-23T19:53:46.929Z,32.20
2023-02-23T19:56:17.008Z,35.97
2023-02-23T19:58:48.289Z,36.58
2023-02-23T20:01:18.418Z,35.08
2023-02-23T20:03:49.545Z,36.40
2023-02-23T20:06:19.019Z,35.33
2023-02-23T20:08:48.292Z,38.88
2023-02-23T20:11:19.062Z,40.20
2023-02-23T20:13:46.509Z,44.35
2023-02-23T20:16:16.769Z,45.13
2023-02-23T20:18:44.056Z,40.88
2023-02-23T20:21:15.668Z,43.42
2023-02-23T20:23:43.618Z,39.10
2023-02-23T20:26:15.962Z,39.20
2023-02-23T20:28:43.043Z,40.13
2023-02-23T20:31:18.240Z,40.00
2023-02-23T20:33:45.350Z,40.75
2023-02-23T20:36:12.493Z,38.78
2023-02-23T20:38:42.355Z,40.17
2023-02-23T20:41:09.585Z,41.35
2023-02-23T20:43:38.010Z,40.83
2023-02-23T20:46:05.682Z,41.70
2023-02-23T20:48:35.071Z,41.33
2023-02-23T20:51:02.323Z,40.05
2023-02-23T20:53:29.940Z,41.92
2023-02-23T20:55:57.107Z,41.38
2023-02-23T20:58:25.147Z,41.80
2023-02-23T21:00:57.157Z,39.33
2023-02-23T21:03:25.296Z,39.20
2023-02-23T21:05:52.638Z,39.33
2023-02-23T21:08:20.278Z,37.67
2023-02-23T21:10:48.805Z,37.67
2023-02-23T21:13:16.338Z,38.10
2023-02-23T21:15:44.390Z,36.53
2023-02-23T21:18:11.622Z,37.67
2023-02-23T21:20:39.903Z,36.67
2023-02-23T21:23:07.388Z,36.70
2023-02-23T21:25:34.435Z,37.58
2023-02-23T21:28:03.753Z,39.80
2023-02-23T21:30:33.101Z,39.20
2023-02-23T21:33:00.278Z,38.40
2023-02-23T21:35:30.008Z,38.47
2023-02-23T21:37:59.519Z,38.78
2023-02-23T21:40:26.701Z,38.33
2023-02-23T21:42:53.784Z,36.78
2023-02-23T21:45:20.848Z,37.92
2023-02-23T21:47:49.057Z,37.45
2023-02-23T21:50:17.993Z,38.65
2023-02-23T21:52:46.971Z,37.80
2023-02-23T21:55:23.429Z,37.88
2023-02-23T21:57:51.002Z,37.50
2023-02-23T22:00:21.715Z,36.60
2023-02-23T22:02:52.091Z,39.95
2023-02-23T22:05:20.004Z,38.63
2023-02-23T22:07:52.085Z,37.10
2023-02-23T22:10:20.784Z,38.28
2023-02-23T22:12:50.277Z,38.30
2023-02-23T22:15:17.383Z,38.22
2023-02-23T22:17:44.828Z,37.83
2023-02-23T22:20:12.515Z,37.53
2023-02-23T22:22:39.553Z,37.83
2023-02-23T22:25:07.854Z,37.70
2023-02-23T22:27:34.866Z,37.72
2023-02-23T22:30:02.233Z,35.58
2023-02-23T22:32:33.039Z,35.63
2023-02-23T22:35:01.115Z,35.42
2023-02-23T22:37:32.237Z,36.90
2023-02-23T22:40:15.723Z,36.08
2023-02-23T22:42:48.406Z,34.72
2023-02-23T22:45:16.386Z,36.25
2023-02-23T22:47:43.488Z,35.55
2023-02-23T22:50:12.182Z,34.13
2023-02-23T22:52:39.463Z,36.22
2023-02-23T22:55:08.060Z,34.58
2023-02-23T22:57:35.139Z,35.42
2023-02-23T23:00:10.974Z,35.53
2023-02-23T23:02:38.302Z,39.03
2023-02-23T23:05:05.813Z,33.75
2023-02-23T23:07:32.919Z,36.05
2023-02-23T23:10:05.880Z,34.30
2023-02-23T23:12:34.741Z,35.72
2023-02-23T23:15:02.990Z,36.78
2023-02-23T23:17:32.803Z,36.10
2023-02-23T23:20:10.738Z,34.47
2023-02-23T23:22:38.770Z,35.35
2023-02-23T23:25:14.956Z,35.35
2023-02-23T23:27:46.171Z,36.03
2023-02-23T23:30:13.762Z,36.10
2023-02-23T23:32:41.126Z,34.33
2023-02-23T23:35:11.399Z,36.17
2023-02-23T23:37:41.683Z,36.13
2023-02-23T23:40:14.959Z,36.20
2023-02-23T23:42:46.104Z,34.85
2023-02-23T23:45:24.483Z,34.78
2023-02-23T23:47:51.492Z,33.85
2023-02-23T23:50:18.507Z,35.78
2023-02-23T23:52:45.914Z,32.45
2023-02-23T23:55:14.871Z,30.95
2023-02-23T23:57:42.661Z,30.58
